createdAt,value
2023-04-09T00:09:56.828Z,99275.59
2023-04-09T00:20:03.038Z,99278.82
2023-04-09T00:30:12.024Z,99284.07
2023-04-09T00:40:19.252Z,99281.04
2023-04-09T00:50:26.665Z,99280.52
2023-04-09T01:00:33.845Z,99282.81
2023-04-09T01:10:39.123Z,99285.55
2023-04-09T01:20:47.843Z,99290.83
2023-04-09T01:30:59.820Z,99277.28
2023-04-09T01:41:06.013Z,99277.58
2023-04-09T01:51:13.027Z,99275.29
2023-04-09T02:01:22.424Z,99263.94
2023-04-09T02:11:28.091Z,99253.88
2023-04-09T02:21:35.097Z,99253.31
2023-04-09T02:31:41.998Z,99248.09
2023-04-09T02:41:48.962Z,99244.96
2023-04-09T02:51:56.042Z,99246.39
2023-04-09T03:02:02.669Z,99251.39
2023-04-09T03:12:08.707Z,99250.29
2023-04-09T03:22:16.102Z,99246.48
2023-04-09T03:32:23.079Z,99246.50
2023-04-09T03:42:30.552Z,99245.82
2023-04-09T03:52:37.504Z,99243.96
2023-04-09T04:12:51.259Z,99244.40
2023-04-09T04:22:58.459Z,99252.19
2023-04-09T04:33:05.454Z,99254.27
2023-04-09T04:43:12.596Z,99259.62
2023-04-09T04:53:19.519Z,99268.11
2023-04-09T05:03:27.598Z,99272.24
2023-04-09T05:13:34.846Z,99268.77
2023-04-09T05:23:42.933Z,99271.78
2023-04-09T05:33:50.069Z,99278.93
2023-04-09T05:43:57.887Z,99286.29
2023-04-09T05:54:04.236Z,99291.56
2023-04-09T06:04:11.301Z,99294.20
2023-04-09T06:14:18.643Z,99289.89
2023-04-09T06:24:25.814Z,99296.91
2023-04-09T06:34:32.853Z,99298.89
2023-04-09T06:44:40.833Z,99301.10
2023-04-09T06:54:48.081Z,99301.70
2023-04-09T07:04:55.214Z,99303.56
2023-04-09T07:15:01.532Z,99313.84
2023-04-09T07:25:09.864Z,99316.48
2023-04-09T07:35:18.811Z,99316.88
2023-04-09T07:45:26.400Z,99317.43
2023-04-09T07:55:33.558Z,99316.70
2023-04-09T08:05:40.709Z,99319.23
2023-04-09T08:15:47.697Z,99319.63
2023-04-09T08:25:54.861Z,99318.94
2023-04-09T08:36:03.366Z,99326.70
2023-04-09T08:46:16.048Z,99331.05
2023-04-09T08:56:23.997Z,99328.34
2023-04-09T09:06:33.304Z,99326.16
2023-04-09T09:16:41.234Z,99328.47
2023-04-09T09:26:48.526Z,99330.48
2023-04-09T09:36:55.826Z,99331.14
2023-04-09T09:47:04.931Z,99327.41
2023-04-09T09:57:14.144Z,99323.95
2023-04-09T10:07:22.314Z,99321.17
2023-04-09T10:17:29.719Z,99314.71
2023-04-09T10:27:36.232Z,99317.23
2023-04-09T10:37:50.908Z,99313.48
2023-04-09T10:47:58.052Z,99304.20
2023-04-09T10:58:04.600Z,99303.96
2023-04-09T11:08:13.266Z,99301.19
2023-04-09T11:18:23.909Z,99305.80
2023-04-09T11:28:31.438Z,99305.78
2023-04-09T11:38:39.088Z,99302.85
2023-04-09T11:48:47.084Z,99303.09
2023-04-09T11:58:56.057Z,99306.04
2023-04-09T12:09:03.340Z,99310.11
2023-04-09T12:19:11.778Z,99319.23
2023-04-09T12:29:21.394Z,99311.63
2023-04-09T12:39:28.739Z,99309.31
2023-04-09T12:49:35.386Z,99305.52
2023-04-09T12:59:42.398Z,99304.52
2023-04-09T13:09:49.869Z,99302.57
2023-04-09T13:19:56.406Z,99307.55
2023-04-09T13:30:03.664Z,99309.65
2023-04-09T13:40:12.662Z,99307.42
2023-04-09T13:50:19.901Z,99318.33
2023-04-09T14:00:26.052Z,99326.24
2023-04-09T14:10:33.876Z,99329.30
2023-04-09T14:20:41.415Z,99326.52
2023-04-09T14:30:48.891Z,99317.73
2023-04-09T14:40:56.175Z,99320.02
2023-04-09T15:01:10.822Z,99307.27
2023-04-09T15:11:16.492Z,99306.48
2023-04-09T15:21:23.855Z,99307.95
2023-04-09T15:31:31.213Z,99306.01
2023-04-09T15:41:38.370Z,99306.48
2023-04-09T15:51:45.461Z,99307.27
2023-04-09T16:01:53.276Z,99304.02
2023-04-09T16:12:01.669Z,99309.70
2023-04-09T16:22:08.703Z,99312.67
2023-04-09T16:32:16.830Z,99314.55
2023-04-09T16:42:24.364Z,99313.02
2023-04-09T17:02:39.593Z,99330.89
2023-04-09T17:12:47.471Z,99331.95
2023-04-09T17:22:54.492Z,99330.86
2023-04-09T17:33:00.291Z,99343.56
2023-04-09T17:43:08.009Z,99360.48
2023-04-09T17:53:15.151Z,99372.45
2023-04-09T18:03:22.581Z,99378.59
2023-04-09T18:13:30.159Z,99386.10
2023-04-09T18:23:39.649Z,99391.65
2023-04-09T18:33:46.908Z,99401.37
2023-04-09T18:43:54.250Z,99409.00
2023-04-09T18:54:00.805Z,99414.95
2023-04-09T19:04:08.322Z,99416.64
2023-04-09T19:14:15.517Z,99417.08
2023-04-09T19:24:23.790Z,99419.45
2023-04-09T19:34:31.429Z,99429.56
2023-04-09T19:44:38.662Z,99430.42
2023-04-09T19:54:46.673Z,99434.64
2023-04-09T20:04:52.569Z,99441.69
2023-04-09T20:14:58.723Z,99448.08
2023-04-09T20:25:07.832Z,99446.86
2023-04-09T20:35:14.678Z,99444.45
2023-04-09T20:45:20.639Z,99444.23
2023-04-09T20:55:28.129Z,99444.96
2023-04-09T21:05:35.846Z,99438.56
2023-04-09T21:15:43.046Z,99431.88
2023-04-09T21:25:50.185Z,99434.01
2023-04-09T21:35:57.853Z,99435.11
2023-04-09T21:46:05.211Z,99436.58
2023-04-09T21:56:10.065Z,99438.79
2023-04-09T22:06:17.143Z,99436.79
2023-04-09T22:16:24.672Z,99441.42
2023-04-09T22:26:31.163Z,99430.55
2023-04-09T22:36:38.725Z,99424.73
2023-04-09T22:46:46.531Z,99428.05
2023-04-09T22:56:53.180Z,99438.91
2023-04-09T23:07:00.231Z,99442.58
2023-04-09T23:17:07.149Z,99438.13
2023-04-09T23:27:14.325Z,99429.02
2023-04-09T23:37:21.697Z,99424.28
2023-04-09T23:47:28.897Z,99406.63
2023-04-09T23:57:35.929Z,99403.30
